Portada
METAR-TAF:

METAR-TAF

Aeroports :

Julian Carroll Airport

Jackson, Kentucky, Estats Units d'Amèrica

latitud: 37-35-29N, longitud: 083-18-52W, altitud: 421 m

Observació

L'informe es va fer fa 46 minuts, a les 23:53 UTC
Vent calma
Temperatura 26°C
Humitat 58%
Pressió 1020 hPa
Visibilitat: 16.1 km
Cel clar

METAR: KJKL 072353Z AUTO 00000KT 10SM CLR 26/17 A3012 RMK AO2 SLP187 T02560172 10289 20250 53003

Hora: 20:39 (00:39 UTC)

Pronòstic

L'informe es va fer fa 1 hora i 11 minuts, a les 23:28 UTC
Pronòstic vàlid del 08 a les 00 UTC al 08 a les 24 UTC
Vent 3 kt amb direcció variable
Visibilitat: 10 km
Núvols disperses a una alçada de 3500 ft

TAF: KJKL 072328Z 0800/0824 VRB03KT P6SM SCT035

Observacions i pronòstics meteorològics de més de 4000 aeroports (METAR i TAF).

Les estacions disponibles són els punts grocs i vermells al mapa.

Posi el ratolí al punt desitjat per veure el nom de l'estació.

Feu clic per veure les observacions i els pronòstics meteorològics.

Per canviar el mapa: feu clic els botons verds amb una creu de color negre per apropar; al botó verd amb un guió per allunyar la imatge; o en les fletxes verdes per a mapes adjacents.


METAR-TAF: